Time,TemperatureF,DewpointF,PressureIn,WindDirection,WindDirectionDegrees,WindSpeedMPH,WindSpeedGustMPH,Humidity,HourlyPrecipIn,Conditions,Clouds,dailyrainin,SoftwareType,DateUTC
2013-01-08 00:00:00,25.6,20.0,30.42,NNE,25,0.0,0.0,79,0.00,,,0.00,HR-IXPWINDi_r2_v1.2.,2013-01-08 05:00:00,
2013-01-08 00:05:00,25.6,20.3,30.42,NNE,25,0.0,0.0,80,0.00,,,0.00,HR-IXPWINDi_r2_v1.2.,2013-01-08 05:05:00,
2013-01-08 00:10:00,25.6,20.0,30.42,NNE,25,0.0,0.0,79,0.00,,,0.00,HR-IXPWINDi_r2_v1.2.,2013-01-08 05:10:00,
2013-01-08 00:15:00,25.7,19.8,30.42,NNE,25,0.0,0.0,78,0.00,,,0.00,HR-IXPWINDi_r2_v1.2.,2013-01-08 05:15:00,
2013-01-08 00:21:00,25.8,19.9,30.42,NNE,25,0.0,1.0,78,0.00,,,0.00,HR-IXPWINDi_r2_v1.2.,2013-01-08 05:21:00,
2013-01-08 00:26:00,25.7,19.8,30.42,NNE,23,1.0,1.0,78,0.00,,,0.00,HR-IXPWINDi_r2_v1.2.,2013-01-08 05:26:00,
2013-01-08 00:31:00,25.7,20.1,30.42,NNE,23,0.0,1.0,79,0.00,,,0.00,HR-IXPWINDi_r2_v1.2.,2013-01-08 05:31:00,
2013-01-08 00:36:00,25.8,20.2,30.42,NNE,23,1.0,1.0,79,0.00,,,0.00,HR-IXPWINDi_r2_v1.2.,2013-01-08 05:36:00,
2013-01-08 00:42:00,26.2,21.5,30.42,NNE,25,1.0,1.0,82,0.00,,,0.00,HR-IXPWINDi_r2_v1.2.,2013-01-08 05:42:00,
2013-01-08 00:47:00,26.2,21.5,30.42,North,357,1.0,2.0,82,0.00,,,0.00,HR-IXPWINDi_r2_v1.2.,2013-01-08 05:47:00,
2013-01-08 00:52:00,25.9,21.5,30.42,North,356,0.0,2.0,83,0.00,,,0.00,HR-IXPWINDi_r2_v1.2.,2013-01-08 05:52:00,
2013-01-08 00:57:00,25.5,20.8,30.42,North,357,1.0,1.0,82,0.00,,,0.00,HR-IXPWINDi_r2_v1.2.,2013-01-08 05:57:00,
2013-01-08 01:03:00,25.4,21.2,30.42,North,357,0.0,1.0,84,0.00,,,0.00,HR-IXPWINDi_r2_v1.2.,2013-01-08 06:03:00,
2013-01-08 01:08:00,25.4,21.0,30.42,North,357,0.0,1.0,83,0.00,,,0.00,HR-IXPWINDi_r2_v1.2.,2013-01-08 06:08:00,
2013-01-08 01:13:00,25.2,20.8,30.42,North,358,0.0,1.0,83,0.00,,,0.00,HR-IXPWINDi_r2_v1.2.,2013-01-08 06:13:00,
2013-01-08 01:18:00,24.7,20.0,30.42,North,358,1.0,1.0,82,0.00,,,0.00,HR-IXPWINDi_r2_v1.2.,2013-01-08 06:18:00,
2013-01-08 01:23:00,24.6,20.2,30.43,North,358,1.0,1.0,83,0.00,,,0.00,HR-IXPWINDi_r2_v1.2.,2013-01-08 06:23:00,
2013-01-08 01:29:00,25.2,21.1,30.43,NNE,22,2.0,2.0,84,0.00,,,0.00,HR-IXPWINDi_r2_v1.2.,2013-01-08 06:29:00,
2013-01-08 01:34:00,25.2,20.5,30.43,North,5,2.0,3.0,82,0.00,,,0.00,HR-IXPWINDi_r2_v1.2.,2013-01-08 06:34:00,
2013-01-08 01:39:00,25.9,22.0,30.43,SW,229,5.0,5.0,85,0.00,,,0.00,HR-IXPWINDi_r2_v1.2.,2013-01-08 06:39:00,
2013-01-08 01:44:00,28.6,25.2,30.43,WSW,250,3.0,5.0,87,0.00,,,0.00,HR-IXPWINDi_r2_v1.2.,2013-01-08 06:44:00,
2013-01-08 01:49:00,31.3,27.9,30.42,SSW,207,14.0,14.0,87,0.00,,,0.00,HR-IXPWINDi_r2_v1.2.,2013-01-08 06:49:00,
2013-01-08 01:55:00,36.6,32.2,30.42,SW,215,10.0,17.0,84,0.00,,,0.00,HR-IXPWINDi_r2_v1.2.,2013-01-08 06:55:00,
2013-01-08 02:00:00,38.7,32.1,30.42,SW,215,17.0,18.0,77,0.00,,,0.00,HR-IXPWINDi_r2_v1.2.,2013-01-08 07:00:00,
2013-01-08 02:05:00,39.5,33.2,30.42,SSW,198,12.0,21.0,78,0.00,,,0.00,HR-IXPWINDi_r2_v1.2.,2013-01-08 07:05:00,
2013-01-08 02:10:00,40.0,32.4,30.42,SSW,200,14.0,21.0,74,0.00,,,0.00,HR-IXPWINDi_r2_v1.2.,2013-01-08 07:10:00,
2013-01-08 02:15:00,40.2,31.9,30.42,SSW,203,16.0,21.0,72,0.00,,,0.00,HR-IXPWINDi_r2_v1.2.,2013-01-08 07:15:00,
2013-01-08 02:21:00,40.4,32.4,30.42,SSW,203,15.0,21.0,73,0.00,,,0.00,HR-IXPWINDi_r2_v1.2.,2013-01-08 07:21:00,
2013-01-08 02:26:00,40.6,32.3,30.42,SW,215,16.0,21.0,72,0.00,,,0.00,HR-IXPWINDi_r2_v1.2.,2013-01-08 07:26:00,
2013-01-08 02:31:00,40.6,32.3,30.41,SSW,210,14.0,21.0,72,0.00,,,0.00,HR-IXPWINDi_r2_v1.2.,2013-01-08 07:31:00,
2013-01-08 02:36:00,40.7,32.0,30.41,SW,215,15.0,21.0,71,0.00,,,0.00,HR-IXPWINDi_r2_v1.2.,2013-01-08 07:36:00,
2013-01-08 02:41:00,40.9,32.5,30.41,SSW,207,13.0,22.0,72,0.00,,,0.00,HR-IXPWINDi_r2_v1.2.,2013-01-08 07:41:00,
2013-01-08 02:47:00,40.9,33.2,30.41,SSW,198,13.0,22.0,74,0.00,,,0.00,HR-IXPWINDi_r2_v1.2.,2013-01-08 07:47:00,
2013-01-08 02:52:00,41.0,33.3,30.41,SSW,204,14.0,21.0,74,0.00,,,0.00,HR-IXPWINDi_r2_v1.2.,2013-01-08 07:52:00,
2013-01-08 02:57:00,41.0,33.7,30.41,SW,215,12.0,21.0,75,0.00,,,0.00,HR-IXPWINDi_r2_v1.2.,2013-01-08 07:57:00,
2013-01-08 03:02:00,41.0,34.3,30.40,SSW,212,17.0,20.0,77,0.00,,,0.00,HR-IXPWINDi_r2_v1.2.,2013-01-08 08:02:00,
2013-01-08 03:07:00,41.1,34.4,30.40,SSW,203,13.0,21.0,77,0.00,,,0.00,HR-IXPWINDi_r2_v1.2.,2013-01-08 08:07:00,
2013-01-08 03:13:00,41.1,35.0,30.40,SSW,204,13.0,21.0,79,0.00,,,0.00,HR-IXPWINDi_r2_v1.2.,2013-01-08 08:13:00,
2013-01-08 03:18:00,41.3,35.2,30.40,SW,217,14.0,21.0,79,0.00,,,0.00,HR-IXPWINDi_r2_v1.2.,2013-01-08 08:18:00,
2013-01-08 03:23:00,41.3,35.2,30.40,SW,215,13.0,21.0,79,0.00,,,0.00,HR-IXPWINDi_r2_v1.2.,2013-01-08 08:23:00,
2013-01-08 03:28:00,41.4,35.7,30.39,SSW,207,13.0,18.0,80,0.00,,,0.00,HR-IXPWINDi_r2_v1.2.,2013-01-08 08:28:00,
2013-01-08 03:33:00,41.4,35.7,30.39,SSW,212,18.0,20.0,80,0.00,,,0.00,HR-IXPWINDi_r2_v1.2.,2013-01-08 08:33:00,
2013-01-08 03:39:00,41.5,35.4,30.39,SW,217,17.0,22.0,79,0.00,,,0.00,HR-IXPWINDi_r2_v1.2.,2013-01-08 08:39:00,
2013-01-08 03:44:00,41.5,34.5,30.39,SSW,212,15.0,23.0,76,0.00,,,0.00,HR-IXPWINDi_r2_v1.2.,2013-01-08 08:44:00,
2013-01-08 03:49:00,41.6,33.9,30.39,SW,215,16.0,24.0,74,0.00,,,0.00,HR-IXPWINDi_r2_v1.2.,2013-01-08 08:49:00,
2013-01-08 03:54:00,41.7,33.7,30.39,SW,218,16.0,24.0,73,0.00,,,0.00,HR-IXPWINDi_r2_v1.2.,2013-01-08 08:54:00,
2013-01-08 04:00:00,41.7,33.7,30.39,SW,215,20.0,24.0,73,0.00,,,0.00,HR-IXPWINDi_r2_v1.2.,2013-01-08 09:00:00,
2013-01-08 04:05:00,41.6,33.9,30.39,SW,215,18.0,22.0,74,0.00,,,0.00,HR-IXPWINDi_r2_v1.2.,2013-01-08 09:05:00,
2013-01-08 04:10:00,41.8,33.7,30.39,SW,215,19.0,24.0,73,0.00,,,0.00,HR-IXPWINDi_r2_v1.2.,2013-01-08 09:10:00,
2013-01-08 04:15:00,41.7,34.3,30.39,SSW,203,11.0,24.0,75,0.00,,,0.00,HR-IXPWINDi_r2_v1.2.,2013-01-08 09:15:00,
2013-01-08 04:20:00,41.7,34.3,30.39,SW,221,16.0,22.0,75,0.00,,,0.00,HR-IXPWINDi_r2_v1.2.,2013-01-08 09:20:00,
2013-01-08 04:26:00,41.7,34.3,30.39,SW,222,17.0,21.0,75,0.00,,,0.00,HR-IXPWINDi_r2_v1.2.,2013-01-08 09:26:00,
2013-01-08 04:31:00,41.8,34.8,30.39,SW,221,16.0,22.0,76,0.00,,,0.00,HR-IXPWINDi_r2_v1.2.,2013-01-08 09:31:00,
2013-01-08 04:36:00,41.8,35.1,30.39,SSW,207,15.0,22.0,77,0.00,,,0.00,HR-IXPWINDi_r2_v1.2.,2013-01-08 09:36:00,
2013-01-08 04:41:00,41.8,35.1,30.39,SSW,210,18.0,22.0,77,0.00,,,0.00,HR-IXPWINDi_r2_v1.2.,2013-01-08 09:41:00,
2013-01-08 04:46:00,41.8,34.8,30.38,SW,221,20.0,24.0,76,0.00,,,0.00,HR-IXPWINDi_r2_v1.2.,2013-01-08 09:46:00,
2013-01-08 04:52:00,41.8,35.1,30.39,SSW,208,20.0,24.0,77,0.00,,,0.00,HR-IXPWINDi_r2_v1.2.,2013-01-08 09:52:00,
2013-01-08 04:57:00,41.8,35.1,30.39,SSW,210,16.0,24.0,77,0.00,,,0.00,HR-IXPWINDi_r2_v1.2.,2013-01-08 09:57:00,
2013-01-08 05:02:00,41.8,35.4,30.39,SW,228,20.0,24.0,78,0.00,,,0.00,HR-IXPWINDi_r2_v1.2.,2013-01-08 10:02:00,
2013-01-08 05:07:00,41.9,35.5,30.39,SW,226,20.0,26.0,78,0.00,,,0.00,HR-IXPWINDi_r2_v1.2.,2013-01-08 10:07:00,
2013-01-08 05:12:00,41.9,35.8,30.39,SW,214,16.0,26.0,79,0.00,,,0.00,HR-IXPWINDi_r2_v1.2.,2013-01-08 10:12:00,
2013-01-08 05:18:00,41.8,36.0,30.40,SW,221,21.0,23.0,80,0.00,,,0.00,HR-IXPWINDi_r2_v1.2.,2013-01-08 10:18:00,
2013-01-08 05:23:00,41.8,36.0,30.40,SW,221,15.0,24.0,80,0.00,,,0.00,HR-IXPWINDi_r2_v1.2.,2013-01-08 10:23:00,
2013-01-08 05:28:00,41.7,36.3,30.40,SSW,212,16.0,24.0,81,0.00,,,0.00,HR-IXPWINDi_r2_v1.2.,2013-01-08 10:28:00,
2013-01-08 05:33:00,41.6,36.5,30.40,SW,228,15.0,23.0,82,0.00,,,0.00,HR-IXPWINDi_r2_v1.2.,2013-01-08 10:33:00,
2013-01-08 05:38:00,41.7,36.6,30.40,SW,221,20.0,25.0,82,0.00,,,0.00,HR-IXPWINDi_r2_v1.2.,2013-01-08 10:38:00,
2013-01-08 05:44:00,41.5,36.7,30.40,SW,226,21.0,25.0,83,0.00,,,0.00,HR-IXPWINDi_r2_v1.2.,2013-01-08 10:44:00,
2013-01-08 05:49:00,41.4,36.6,30.40,SW,222,18.0,25.0,83,0.00,,,0.00,HR-IXPWINDi_r2_v1.2.,2013-01-08 10:49:00,
2013-01-08 05:54:00,41.3,36.2,30.40,SW,229,24.0,27.0,82,0.00,,,0.00,HR-IXPWINDi_r2_v1.2.,2013-01-08 10:54:00,
2013-01-08 05:59:00,41.3,35.6,30.40,SSW,206,17.0,27.0,80,0.00,,,0.00,HR-IXPWINDi_r2_v1.2.,2013-01-08 10:59:00,
2013-01-08 06:04:00,41.5,34.8,30.40,SW,215,19.0,28.0,77,0.00,,,0.00,HR-IXPWINDi_r2_v1.2.,2013-01-08 11:04:00,
2013-01-08 06:10:00,41.5,34.8,30.40,SW,215,18.0,28.0,77,0.00,,,0.00,HR-IXPWINDi_r2_v1.2.,2013-01-08 11:10:00,
2013-01-08 06:15:00,41.3,34.9,30.41,SW,219,15.0,25.0,78,0.00,,,0.00,HR-IXPWINDi_r2_v1.2.,2013-01-08 11:15:00,
2013-01-08 06:20:00,41.1,35.4,30.41,SW,226,17.0,23.0,80,0.00,,,0.00,HR-IXPWINDi_r2_v1.2.,2013-01-08 11:20:00,
2013-01-08 06:25:00,40.8,35.1,30.41,SW,224,15.0,22.0,80,0.00,,,0.00,HR-IXPWINDi_r2_v1.2.,2013-01-08 11:25:00,
2013-01-08 06:30:00,40.8,35.1,30.41,WSW,248,16.0,23.0,80,0.00,,,0.00,HR-IXPWINDi_r2_v1.2.,2013-01-08 11:30:00,
2013-01-08 06:36:00,40.7,35.0,30.42,SW,221,17.0,23.0,80,0.00,,,0.00,HR-IXPWINDi_r2_v1.2.,2013-01-08 11:36:00,
2013-01-08 06:41:00,40.7,35.3,30.42,SW,225,16.0,22.0,81,0.00,,,0.00,HR-IXPWINDi_r2_v1.2.,2013-01-08 11:41:00,
2013-01-08 06:46:00,40.7,35.0,30.42,SW,228,18.0,22.0,80,0.00,,,0.00,HR-IXPWINDi_r2_v1.2.,2013-01-08 11:46:00,
2013-01-08 06:51:00,40.7,35.3,30.42,SW,225,16.0,23.0,81,0.00,,,0.00,HR-IXPWINDi_r2_v1.2.,2013-01-08 11:51:00,
2013-01-08 06:56:00,40.6,34.9,30.42,SW,221,17.0,23.0,80,0.00,,,0.00,HR-IXPWINDi_r2_v1.2.,2013-01-08 11:56:00,
2013-01-08 07:01:00,40.7,35.0,30.42,SSW,210,18.0,24.0,80,0.00,,,0.00,HR-IXPWINDi_r2_v1.2.,2013-01-08 12:01:00,
2013-01-08 07:07:00,40.6,35.2,30.43,WSW,250,13.0,24.0,81,0.00,,,0.00,HR-IXPWINDi_r2_v1.2.,2013-01-08 12:07:00,
2013-01-08 07:12:00,40.5,35.1,30.43,SSW,204,16.0,24.0,81,0.00,,,0.00,HR-IXPWINDi_r2_v1.2.,2013-01-08 12:12:00,
2013-01-08 07:17:00,40.5,35.1,30.43,SW,231,14.0,20.0,81,0.00,,,0.00,HR-IXPWINDi_r2_v1.2.,2013-01-08 12:17:00,
2013-01-08 07:22:00,40.5,35.1,30.43,SSW,212,14.0,20.0,81,0.00,,,0.00,HR-IXPWINDi_r2_v1.2.,2013-01-08 12:22:00,
2013-01-08 07:28:00,40.4,35.3,30.43,SW,219,13.0,22.0,82,0.00,,,0.00,HR-IXPWINDi_r2_v1.2.,2013-01-08 12:28:00,
2013-01-08 07:33:00,40.4,35.6,30.43,SW,226,18.0,22.0,83,0.00,,,0.00,HR-IXPWINDi_r2_v1.2.,2013-01-08 12:33:00,
2013-01-08 07:38:00,40.6,35.5,30.43,SW,215,24.0,26.0,82,0.00,,,0.00,HR-IXPWINDi_r2_v1.2.,2013-01-08 12:38:00,
2013-01-08 07:43:00,40.7,35.3,30.44,SSW,203,20.0,26.0,81,0.00,,,0.00,HR-IXPWINDi_r2_v1.2.,2013-01-08 12:43:00,
2013-01-08 07:48:00,40.7,35.0,30.44,SSW,205,10.0,27.0,80,0.00,,,0.00,HR-IXPWINDi_r2_v1.2.,2013-01-08 12:48:00,
2013-01-08 07:53:00,40.8,35.4,30.44,SW,221,15.0,27.0,81,0.00,,,0.00,HR-IXPWINDi_r2_v1.2.,2013-01-08 12:53:00,
2013-01-08 07:58:00,41.0,35.6,30.45,SW,214,12.0,26.0,81,0.00,,,0.00,HR-IXPWINDi_r2_v1.2.,2013-01-08 12:58:00,
2013-01-08 08:04:00,41.1,35.0,30.44,SSW,205,22.0,27.0,79,0.00,,,0.00,HR-IXPWINDi_r2_v1.2.,2013-01-08 13:04:00,
2013-01-08 08:09:00,41.2,34.8,30.44,SW,236,18.0,28.0,78,0.00,,,0.00,HR-IXPWINDi_r2_v1.2.,2013-01-08 13:09:00,
2013-01-08 08:14:00,41.3,35.2,30.44,SSW,212,19.0,28.0,79,0.00,,,0.00,HR-IXPWINDi_r2_v1.2.,2013-01-08 13:14:00,
2013-01-08 08:19:00,41.3,35.2,30.44,SW,226,15.0,23.0,79,0.00,,,0.00,HR-IXPWINDi_r2_v1.2.,2013-01-08 13:19:00,
2013-01-08 08:24:00,41.4,35.0,30.45,SSW,212,20.0,23.0,78,0.00,,,0.00,HR-IXPWINDi_r2_v1.2.,2013-01-08 13:24:00,
2013-01-08 08:30:00,41.4,35.3,30.45,SW,226,16.0,23.0,79,0.00,,,0.00,HR-IXPWINDi_r2_v1.2.,2013-01-08 13:30:00,
2013-01-08 08:35:00,41.5,35.4,30.45,SW,224,16.0,23.0,79,0.00,,,0.00,HR-IXPWINDi_r2_v1.2.,2013-01-08 13:35:00,
2013-01-08 08:40:00,41.5,35.4,30.45,SSW,205,15.0,24.0,79,0.00,,,0.00,HR-IXPWINDi_r2_v1.2.,2013-01-08 13:40:00,
2013-01-08 08:45:00,41.5,35.4,30.45,SW,219,13.0,24.0,79,0.00,,,0.00,HR-IXPWINDi_r2_v1.2.,2013-01-08 13:45:00,
2013-01-08 08:50:00,41.5,35.4,30.45,West,259,17.0,24.0,79,0.00,,,0.00,HR-IXPWINDi_r2_v1.2.,2013-01-08 13:50:00,
2013-01-08 08:56:00,41.6,35.5,30.45,SW,215,18.0,26.0,79,0.00,,,0.00,HR-IXPWINDi_r2_v1.2.,2013-01-08 13:56:00,
2013-01-08 09:01:00,41.6,35.9,30.45,SW,215,16.0,26.0,80,0.00,,,0.00,HR-IXPWINDi_r2_v1.2.,2013-01-08 14:01:00,
2013-01-08 09:06:00,41.6,35.2,30.45,SSW,206,20.0,25.0,78,0.00,,,0.00,HR-IXPWINDi_r2_v1.2.,2013-01-08 14:06:00,
2013-01-08 09:11:00,41.6,35.2,30.45,SW,233,20.0,25.0,78,0.00,,,0.00,HR-IXPWINDi_r2_v1.2.,2013-01-08 14:11:00,
2013-01-08 09:16:00,41.7,35.6,30.45,SW,224,17.0,24.0,79,0.00,,,0.00,HR-IXPWINDi_r2_v1.2.,2013-01-08 14:16:00,
2013-01-08 09:21:00,41.7,35.6,30.45,SW,214,17.0,25.0,79,0.00,,,0.00,HR-IXPWINDi_r2_v1.2.,2013-01-08 14:21:00,
2013-01-08 09:26:00,41.7,35.3,30.45,SW,225,25.0,28.0,78,0.00,,,0.00,HR-IXPWINDi_r2_v1.2.,2013-01-08 14:26:00,
2013-01-08 09:32:00,41.7,35.6,30.45,SW,221,18.0,28.0,79,0.00,,,0.00,HR-IXPWINDi_r2_v1.2.,2013-01-08 14:32:00,
2013-01-08 09:37:00,41.7,35.9,30.45,SW,231,20.0,26.0,80,0.00,,,0.00,HR-IXPWINDi_r2_v1.2.,2013-01-08 14:37:00,
2013-01-08 09:42:00,41.8,35.7,30.45,SSW,212,26.0,26.0,79,0.00,,,0.00,HR-IXPWINDi_r2_v1.2.,2013-01-08 14:42:00,
2013-01-08 09:47:00,41.8,35.7,30.45,SSW,197,16.0,27.0,79,0.00,,,0.00,HR-IXPWINDi_r2_v1.2.,2013-01-08 14:47:00,
2013-01-08 09:52:00,41.8,35.7,30.44,SW,226,19.0,28.0,79,0.00,,,0.00,HR-IXPWINDi_r2_v1.2.,2013-01-08 14:52:00,
2013-01-08 09:57:00,41.8,36.0,30.45,SW,215,17.0,28.0,80,0.00,,,0.00,HR-IXPWINDi_r2_v1.2.,2013-01-08 14:57:00,
2013-01-08 10:02:00,41.8,35.7,30.44,SSW,207,21.0,27.0,79,0.00,,,0.00,HR-IXPWINDi_r2_v1.2.,2013-01-08 15:02:00,
2013-01-08 10:07:00,41.9,35.5,30.44,SW,219,27.0,28.0,78,0.00,,,0.00,HR-IXPWINDi_r2_v1.2.,2013-01-08 15:07:00,
2013-01-08 10:13:00,41.9,35.8,30.44,West,262,22.0,28.0,79,0.00,,,0.00,HR-IXPWINDi_r2_v1.2.,2013-01-08 15:13:00,
2013-01-08 10:18:00,41.9,36.1,30.44,SW,217,18.0,27.0,80,0.00,,,0.00,HR-IXPWINDi_r2_v1.2.,2013-01-08 15:18:00,
2013-01-08 10:23:00,42.0,36.2,30.44,SW,232,13.0,27.0,80,0.00,,,0.00,HR-IXPWINDi_r2_v1.2.,2013-01-08 15:23:00,
2013-01-08 10:28:00,42.0,36.6,30.43,SSW,210,14.0,27.0,81,0.00,,,0.00,HR-IXPWINDi_r2_v1.2.,2013-01-08 15:28:00,
2013-01-08 10:33:00,42.2,36.4,30.43,SW,224,12.0,26.0,80,0.00,,,0.00,HR-IXPWINDi_r2_v1.2.,2013-01-08 15:33:00,
2013-01-08 10:39:00,42.2,36.1,30.43,WSW,245,17.0,25.0,79,0.00,,,0.00,HR-IXPWINDi_r2_v1.2.,2013-01-08 15:39:00,
2013-01-08 10:44:00,42.2,36.4,30.42,SW,221,22.0,27.0,80,0.00,,,0.00,HR-IXPWINDi_r2_v1.2.,2013-01-08 15:44:00,
2013-01-08 10:49:00,42.2,36.4,30.42,SW,217,19.0,27.0,80,0.00,,,0.00,HR-IXPWINDi_r2_v1.2.,2013-01-08 15:49:00,
2013-01-08 10:54:00,42.4,36.6,30.42,SW,215,24.0,27.0,80,0.00,,,0.00,HR-IXPWINDi_r2_v1.2.,2013-01-08 15:54:00,
2013-01-08 11:00:00,42.5,36.1,30.42,SW,217,15.0,27.0,78,0.00,,,0.00,HR-IXPWINDi_r2_v1.2.,2013-01-08 16:00:00,
2013-01-08 11:05:00,42.6,36.2,30.42,SW,231,16.0,27.0,78,0.00,,,0.00,HR-IXPWINDi_r2_v1.2.,2013-01-08 16:05:00,
2013-01-08 11:10:00,42.7,36.3,30.41,SW,231,19.0,27.0,78,0.00,,,0.00,HR-IXPWINDi_r2_v1.2.,2013-01-08 16:10:00,
2013-01-08 11:15:00,42.7,36.3,30.41,SW,228,17.0,28.0,78,0.00,,,0.00,HR-IXPWINDi_r2_v1.2.,2013-01-08 16:15:00,
2013-01-08 11:20:00,42.9,36.5,30.41,WSW,243,24.0,28.0,78,0.00,,,0.00,HR-IXPWINDi_r2_v1.2.,2013-01-08 16:20:00,
2013-01-08 11:25:00,43.1,36.3,30.40,WSW,240,21.0,29.0,77,0.00,,,0.00,HR-IXPWINDi_r2_v1.2.,2013-01-08 16:25:00,
2013-01-08 11:30:00,43.1,36.3,30.40,SW,228,24.0,29.0,77,0.00,,,0.00,HR-IXPWINDi_r2_v1.2.,2013-01-08 16:30:00,
2013-01-08 11:36:00,43.1,36.7,30.40,SW,215,20.0,28.0,78,0.00,,,0.00,HR-IXPWINDi_r2_v1.2.,2013-01-08 16:36:00,
2013-01-08 11:41:00,43.2,37.1,30.40,SSW,198,13.0,28.0,79,0.00,,,0.00,HR-IXPWINDi_r2_v1.2.,2013-01-08 16:41:00,
2013-01-08 11:46:00,43.3,37.2,30.40,SSW,205,13.0,26.0,79,0.00,,,0.00,HR-IXPWINDi_r2_v1.2.,2013-01-08 16:46:00,
2013-01-08 11:51:00,43.3,37.2,30.39,SW,222,16.0,26.0,79,0.00,,,0.00,HR-IXPWINDi_r2_v1.2.,2013-01-08 16:51:00,
2013-01-08 11:56:00,43.5,37.4,30.39,SW,222,19.0,23.0,79,0.00,,,0.00,HR-IXPWINDi_r2_v1.2.,2013-01-08 16:56:00,
2013-01-08 12:01:00,43.5,37.1,30.38,WSW,237,21.0,25.0,78,0.00,,,0.00,HR-IXPWINDi_r2_v1.2.,2013-01-08 17:01:00,
2013-01-08 12:07:00,43.5,37.4,30.38,SW,231,14.0,25.0,79,0.00,,,0.00,HR-IXPWINDi_r2_v1.2.,2013-01-08 17:07:00,
2013-01-08 12:12:00,43.7,37.6,30.38,West,264,12.0,24.0,79,0.00,,,0.00,HR-IXPWINDi_r2_v1.2.,2013-01-08 17:12:00,
2013-01-08 12:17:00,43.9,37.8,30.38,SW,215,16.0,22.0,79,0.00,,,0.00,HR-IXPWINDi_r2_v1.2.,2013-01-08 17:17:00,
2013-01-08 12:23:00,44.0,37.5,30.38,WSW,257,13.0,21.0,78,0.00,,,0.00,HR-IXPWINDi_r2_v1.2.,2013-01-08 17:23:00,
2013-01-08 12:28:00,44.0,37.5,30.38,SW,235,17.0,22.0,78,0.00,,,0.00,HR-IXPWINDi_r2_v1.2.,2013-01-08 17:28:00,
2013-01-08 12:33:00,44.1,37.6,30.38,SW,224,9.0,22.0,78,0.00,,,0.00,HR-IXPWINDi_r2_v1.2.,2013-01-08 17:33:00,
2013-01-08 12:38:00,44.3,37.5,30.37,SW,231,13.0,22.0,77,0.00,,,0.00,HR-IXPWINDi_r2_v1.2.,2013-01-08 17:38:00,
2013-01-08 12:43:00,44.3,37.5,30.37,SW,225,12.0,22.0,77,0.00,,,0.00,HR-IXPWINDi_r2_v1.2.,2013-01-08 17:43:00,
2013-01-08 12:49:00,44.1,37.0,30.37,SW,219,18.0,23.0,76,0.00,,,0.00,HR-IXPWINDi_r2_v1.2.,2013-01-08 17:49:00,
2013-01-08 12:54:00,44.0,37.2,30.36,SW,219,20.0,23.0,77,0.00,,,0.00,HR-IXPWINDi_r2_v1.2.,2013-01-08 17:54:00,
2013-01-08 12:59:00,44.0,37.2,30.36,SW,214,10.0,22.0,77,0.00,,,0.00,HR-IXPWINDi_r2_v1.2.,2013-01-08 17:59:00,
2013-01-08 13:04:00,44.0,36.9,30.36,SW,217,14.0,23.0,76,0.00,,,0.00,HR-IXPWINDi_r2_v1.2.,2013-01-08 18:04:00,
2013-01-08 13:09:00,44.1,36.6,30.36,SW,221,15.0,23.0,75,0.00,,,0.00,HR-IXPWINDi_r2_v1.2.,2013-01-08 18:09:00,
2013-01-08 13:14:00,44.2,36.7,30.36,SW,224,16.0,20.0,75,0.00,,,0.00,HR-IXPWINDi_r2_v1.2.,2013-01-08 18:14:00,
2013-01-08 13:19:00,44.3,36.8,30.36,SW,215,19.0,20.0,75,0.00,,,0.00,HR-IXPWINDi_r2_v1.2.,2013-01-08 18:19:00,
2013-01-08 13:25:00,44.1,36.6,30.36,SSW,207,16.0,24.0,75,0.00,,,0.00,HR-IXPWINDi_r2_v1.2.,2013-01-08 18:25:00,
2013-01-08 13:30:00,44.2,37.1,30.36,SSW,203,10.0,24.0,76,0.00,,,0.00,HR-IXPWINDi_r2_v1.2.,2013-01-08 18:30:00,
2013-01-08 13:35:00,44.4,36.9,30.36,SSW,212,11.0,23.0,75,0.00,,,0.00,HR-IXPWINDi_r2_v1.2.,2013-01-08 18:35:00,
2013-01-08 13:40:00,44.6,37.1,30.36,SW,221,12.0,23.0,75,0.00,,,0.00,HR-IXPWINDi_r2_v1.2.,2013-01-08 18:40:00,
2013-01-08 13:45:00,44.7,36.5,30.36,SW,222,13.0,22.0,73,0.00,,,0.00,HR-IXPWINDi_r2_v1.2.,2013-01-08 18:45:00,
2013-01-08 13:50:00,44.8,36.6,30.36,SW,215,15.0,21.0,73,0.00,,,0.00,HR-IXPWINDi_r2_v1.2.,2013-01-08 18:50:00,
2013-01-08 13:56:00,44.7,36.5,30.37,SW,222,14.0,22.0,73,0.00,,,0.00,HR-IXPWINDi_r2_v1.2.,2013-01-08 18:56:00,
2013-01-08 14:01:00,44.7,36.5,30.37,SW,231,13.0,22.0,73,0.00,,,0.00,HR-IXPWINDi_r2_v1.2.,2013-01-08 19:01:00,
2013-01-08 14:06:00,44.7,36.9,30.37,SW,232,15.0,21.0,74,0.00,,,0.00,HR-IXPWINDi_r2_v1.2.,2013-01-08 19:06:00,
2013-01-08 14:11:00,44.5,37.0,30.37,SW,218,15.0,21.0,75,0.00,,,0.00,HR-IXPWINDi_r2_v1.2.,2013-01-08 19:11:00,
2013-01-08 14:16:00,44.3,37.2,30.36,SW,231,18.0,21.0,76,0.00,,,0.00,HR-IXPWINDi_r2_v1.2.,2013-01-08 19:16:00,
2013-01-08 14:22:00,44.2,37.1,30.36,SW,221,18.0,21.0,76,0.00,,,0.00,HR-IXPWINDi_r2_v1.2.,2013-01-08 19:22:00,
2013-01-08 14:27:00,44.1,37.6,30.36,SSW,212,18.0,21.0,78,0.00,,,0.00,HR-IXPWINDi_r2_v1.2.,2013-01-08 19:27:00,
2013-01-08 14:32:00,44.1,37.6,30.37,SW,224,13.0,20.0,78,0.00,,,0.00,HR-IXPWINDi_r2_v1.2.,2013-01-08 19:32:00,
2013-01-08 14:37:00,44.2,37.7,30.37,SSW,212,11.0,20.0,78,0.00,,,0.00,HR-IXPWINDi_r2_v1.2.,2013-01-08 19:37:00,
2013-01-08 14:43:00,44.3,37.8,30.36,SW,217,15.0,20.0,78,0.00,,,0.00,HR-IXPWINDi_r2_v1.2.,2013-01-08 19:43:00,
2013-01-08 14:48:00,44.3,37.5,30.36,WSW,249,13.0,20.0,77,0.00,,,0.00,HR-IXPWINDi_r2_v1.2.,2013-01-08 19:48:00,
2013-01-08 14:53:00,44.4,37.3,30.36,SW,235,12.0,20.0,76,0.00,,,0.00,HR-IXPWINDi_r2_v1.2.,2013-01-08 19:53:00,
2013-01-08 14:58:00,44.3,37.2,30.36,SW,224,14.0,19.0,76,0.00,,,0.00,HR-IXPWINDi_r2_v1.2.,2013-01-08 19:58:00,
2013-01-08 15:03:00,44.2,37.4,30.36,SSW,210,13.0,18.0,77,0.00,,,0.00,HR-IXPWINDi_r2_v1.2.,2013-01-08 20:03:00,
2013-01-08 15:08:00,44.2,38.1,30.36,SW,215,11.0,18.0,79,0.00,,,0.00,HR-IXPWINDi_r2_v1.2.,2013-01-08 20:08:00,
2013-01-08 15:13:00,44.1,38.0,30.36,SW,219,17.0,18.0,79,0.00,,,0.00,HR-IXPWINDi_r2_v1.2.,2013-01-08 20:13:00,
2013-01-08 15:19:00,44.2,38.4,30.36,SW,224,12.0,18.0,80,0.00,,,0.00,HR-IXPWINDi_r2_v1.2.,2013-01-08 20:19:00,
2013-01-08 15:24:00,44.2,38.4,30.36,SW,224,14.0,18.0,80,0.00,,,0.00,HR-IXPWINDi_r2_v1.2.,2013-01-08 20:24:00,
2013-01-08 15:29:00,44.3,38.5,30.36,SSW,203,10.0,18.0,80,0.00,,,0.00,HR-IXPWINDi_r2_v1.2.,2013-01-08 20:29:00,
2013-01-08 15:34:00,44.3,38.8,30.36,SW,224,15.0,18.0,81,0.00,,,0.00,HR-IXPWINDi_r2_v1.2.,2013-01-08 20:34:00,
2013-01-08 15:39:00,44.3,38.8,30.36,SW,224,14.0,16.0,81,0.00,,,0.00,HR-IXPWINDi_r2_v1.2.,2013-01-08 20:39:00,
2013-01-08 15:44:00,44.2,38.7,30.35,SW,222,14.0,15.0,81,0.00,,,0.00,HR-IXPWINDi_r2_v1.2.,2013-01-08 20:44:00,
2013-01-08 15:50:00,44.2,39.0,30.36,SW,219,11.0,15.0,82,0.00,,,0.00,HR-IXPWINDi_r2_v1.2.,2013-01-08 20:50:00,
2013-01-08 15:55:00,44.0,38.8,30.36,SW,214,11.0,15.0,82,0.00,,,0.00,HR-IXPWINDi_r2_v1.2.,2013-01-08 20:55:00,
2013-01-08 16:00:00,43.8,38.9,30.36,SW,221,9.0,14.0,83,0.00,,,0.00,HR-IXPWINDi_r2_v1.2.,2013-01-08 21:00:00,
2013-01-08 16:05:00,43.5,38.9,30.36,SW,224,13.0,14.0,84,0.00,,,0.00,HR-IXPWINDi_r2_v1.2.,2013-01-08 21:05:00,
2013-01-08 16:11:00,43.1,38.9,30.36,SSW,212,6.0,14.0,85,0.00,,,0.00,HR-IXPWINDi_r2_v1.2.,2013-01-08 21:11:00,
2013-01-08 16:16:00,42.8,38.9,30.36,SW,229,12.0,14.0,86,0.00,,,0.00,HR-IXPWINDi_r2_v1.2.,2013-01-08 21:16:00,
2013-01-08 16:21:00,42.8,38.9,30.36,SW,219,11.0,13.0,86,0.00,,,0.00,HR-IXPWINDi_r2_v1.2.,2013-01-08 21:21:00,
2013-01-08 16:26:00,42.7,38.8,30.36,SSW,208,5.0,13.0,86,0.00,,,0.00,HR-IXPWINDi_r2_v1.2.,2013-01-08 21:26:00,
2013-01-08 16:31:00,42.6,38.7,30.36,SSW,212,7.0,11.0,86,0.00,,,0.00,HR-IXPWINDi_r2_v1.2.,2013-01-08 21:31:00,
2013-01-08 16:36:00,42.5,38.6,30.36,SSW,210,11.0,12.0,86,0.00,,,0.00,HR-IXPWINDi_r2_v1.2.,2013-01-08 21:36:00,
2013-01-08 16:42:00,42.6,39.0,30.36,SW,228,9.0,13.0,87,0.00,,,0.00,HR-IXPWINDi_r2_v1.2.,2013-01-08 21:42:00,
2013-01-08 16:47:00,42.6,39.2,30.36,SSW,212,8.0,13.0,88,0.00,,,0.00,HR-IXPWINDi_r2_v1.2.,2013-01-08 21:47:00,
2013-01-08 16:52:00,42.6,39.2,30.37,SW,225,9.0,11.0,88,0.00,,,0.00,HR-IXPWINDi_r2_v1.2.,2013-01-08 21:52:00,
2013-01-08 16:57:00,42.5,38.9,30.36,SW,217,16.0,16.0,87,0.00,,,0.00,HR-IXPWINDi_r2_v1.2.,2013-01-08 21:57:00,
2013-01-08 17:02:00,42.6,38.7,30.37,SW,219,16.0,18.0,86,0.00,,,0.00,HR-IXPWINDi_r2_v1.2.,2013-01-08 22:02:00,
2013-01-08 17:08:00,42.7,38.2,30.37,SW,217,21.0,23.0,84,0.00,,,0.00,HR-IXPWINDi_r2_v1.2.,2013-01-08 22:08:00,
2013-01-08 17:13:00,42.8,38.3,30.37,SW,221,17.0,23.0,84,0.00,,,0.00,HR-IXPWINDi_r2_v1.2.,2013-01-08 22:13:00,
2013-01-08 17:18:00,42.8,38.6,30.37,SSW,203,12.0,21.0,85,0.00,,,0.00,HR-IXPWINDi_r2_v1.2.,2013-01-08 22:18:00,
2013-01-08 17:23:00,42.8,38.6,30.37,SW,219,17.0,20.0,85,0.00,,,0.00,HR-IXPWINDi_r2_v1.2.,2013-01-08 22:23:00,
2013-01-08 17:28:00,42.8,38.6,30.37,SSW,212,12.0,20.0,85,0.00,,,0.00,HR-IXPWINDi_r2_v1.2.,2013-01-08 22:28:00,
2013-01-08 17:34:00,42.7,38.5,30.37,SSW,212,15.0,21.0,85,0.00,,,0.00,HR-IXPWINDi_r2_v1.2.,2013-01-08 22:34:00,
2013-01-08 17:39:00,42.8,38.6,30.37,WSW,243,16.0,21.0,85,0.00,,,0.00,HR-IXPWINDi_r2_v1.2.,2013-01-08 22:39:00,
2013-01-08 17:44:00,42.8,38.6,30.38,SW,215,13.0,21.0,85,0.00,,,0.00,HR-IXPWINDi_r2_v1.2.,2013-01-08 22:44:00,
2013-01-08 17:49:00,42.8,38.6,30.38,SSW,206,16.0,20.0,85,0.00,,,0.00,HR-IXPWINDi_r2_v1.2.,2013-01-08 22:49:00,
2013-01-08 17:54:00,42.7,38.5,30.38,SW,226,11.0,20.0,85,0.00,,,0.00,HR-IXPWINDi_r2_v1.2.,2013-01-08 22:54:00,
2013-01-08 17:59:00,42.7,38.5,30.38,SW,231,12.0,20.0,85,0.00,,,0.00,HR-IXPWINDi_r2_v1.2.,2013-01-08 22:59:00,
2013-01-08 18:05:00,42.7,38.5,30.39,SW,221,17.0,19.0,85,0.00,,,0.00,HR-IXPWINDi_r2_v1.2.,2013-01-08 23:05:00,
2013-01-08 18:10:00,42.7,38.5,30.39,SW,215,10.0,19.0,85,0.00,,,0.00,HR-IXPWINDi_r2_v1.2.,2013-01-08 23:10:00,
2013-01-08 18:15:00,42.6,38.1,30.39,SW,226,12.0,17.0,84,0.00,,,0.00,HR-IXPWINDi_r2_v1.2.,2013-01-08 23:15:00,
2013-01-08 18:20:00,42.5,38.0,30.39,SW,229,9.0,15.0,84,0.00,,,0.00,HR-IXPWINDi_r2_v1.2.,2013-01-08 23:20:00,
2013-01-08 18:26:00,42.5,38.0,30.39,SW,219,7.0,16.0,84,0.00,,,0.00,HR-IXPWINDi_r2_v1.2.,2013-01-08 23:26:00,
2013-01-08 18:31:00,42.4,38.2,30.39,WSW,248,9.0,16.0,85,0.00,,,0.00,HR-IXPWINDi_r2_v1.2.,2013-01-08 23:31:00,
2013-01-08 18:36:00,42.3,38.1,30.39,WSW,245,8.0,13.0,85,0.00,,,0.00,HR-IXPWINDi_r2_v1.2.,2013-01-08 23:36:00,
2013-01-08 18:41:00,42.2,38.0,30.40,SW,224,7.0,14.0,85,0.00,,,0.00,HR-IXPWINDi_r2_v1.2.,2013-01-08 23:41:00,
2013-01-08 18:46:00,42.0,37.8,30.40,West,272,4.0,14.0,85,0.00,,,0.00,HR-IXPWINDi_r2_v1.2.,2013-01-08 23:46:00,
2013-01-08 18:51:00,41.7,37.5,30.40,SW,235,3.0,11.0,85,0.00,,,0.00,HR-IXPWINDi_r2_v1.2.,2013-01-08 23:51:00,
2013-01-08 18:57:00,41.3,37.4,30.40,WNW,288,2.0,7.0,86,0.00,,,0.00,HR-IXPWINDi_r2_v1.2.,2013-01-08 23:57:00,
2013-01-08 19:02:00,41.0,37.1,30.40,West,278,2.0,7.0,86,0.00,,,0.00,HR-IXPWINDi_r2_v1.2.,2013-01-09 00:02:00,
2013-01-08 19:07:00,40.8,36.9,30.40,WNW,287,3.0,6.0,86,0.00,,,0.00,HR-IXPWINDi_r2_v1.2.,2013-01-09 00:07:00,
2013-01-08 19:12:00,40.6,36.7,30.41,WNW,283,2.0,5.0,86,0.00,,,0.00,HR-IXPWINDi_r2_v1.2.,2013-01-09 00:12:00,
2013-01-08 19:17:00,40.5,36.6,30.41,West,281,2.0,6.0,86,0.00,,,0.00,HR-IXPWINDi_r2_v1.2.,2013-01-09 00:17:00,
2013-01-08 19:22:00,40.3,36.4,30.41,West,274,1.0,6.0,86,0.00,,,0.00,HR-IXPWINDi_r2_v1.2.,2013-01-09 00:22:00,
2013-01-08 19:28:00,40.0,36.1,30.41,WSW,257,2.0,6.0,86,0.00,,,0.00,HR-IXPWINDi_r2_v1.2.,2013-01-09 00:28:00,
2013-01-08 19:33:00,39.7,36.1,30.41,WSW,238,2.0,5.0,87,0.00,,,0.00,HR-IXPWINDi_r2_v1.2.,2013-01-09 00:33:00,
2013-01-08 19:38:00,39.7,36.4,30.40,SW,215,6.0,7.0,88,0.00,,,0.00,HR-IXPWINDi_r2_v1.2.,2013-01-09 00:38:00,
2013-01-08 19:43:00,39.9,36.6,30.40,SW,228,8.0,9.0,88,0.00,,,0.00,HR-IXPWINDi_r2_v1.2.,2013-01-09 00:43:00,
2013-01-08 19:48:00,40.1,36.8,30.40,WSW,238,5.0,9.0,88,0.00,,,0.00,HR-IXPWINDi_r2_v1.2.,2013-01-09 00:48:00,
2013-01-08 19:53:00,40.1,36.8,30.41,WSW,255,3.0,9.0,88,0.00,,,0.00,HR-IXPWINDi_r2_v1.2.,2013-01-09 00:53:00,
2013-01-08 19:58:00,40.1,36.8,30.41,WSW,243,5.0,9.0,88,0.00,,,0.00,HR-IXPWINDi_r2_v1.2.,2013-01-09 00:58:00,
2013-01-08 20:03:00,40.0,36.7,30.41,West,260,6.0,9.0,88,0.00,,,0.00,HR-IXPWINDi_r2_v1.2.,2013-01-09 01:03:00,
2013-01-08 20:08:00,39.9,36.6,30.41,WSW,253,7.0,8.0,88,0.00,,,0.00,HR-IXPWINDi_r2_v1.2.,2013-01-09 01:08:00,
2013-01-08 20:14:00,39.9,36.6,30.41,SW,222,4.0,9.0,88,0.00,,,0.00,HR-IXPWINDi_r2_v1.2.,2013-01-09 01:14:00,
2013-01-08 20:19:00,39.8,36.5,30.41,West,276,3.0,9.0,88,0.00,,,0.00,HR-IXPWINDi_r2_v1.2.,2013-01-09 01:19:00,
2013-01-08 20:24:00,39.6,36.6,30.41,WSW,257,4.0,8.0,89,0.00,,,0.00,HR-IXPWINDi_r2_v1.2.,2013-01-09 01:24:00,
2013-01-08 20:29:00,39.5,36.5,30.41,West,262,3.0,7.0,89,0.00,,,0.00,HR-IXPWINDi_r2_v1.2.,2013-01-09 01:29:00,
2013-01-08 20:34:00,39.3,36.3,30.41,WSW,253,6.0,8.0,89,0.00,,,0.00,HR-IXPWINDi_r2_v1.2.,2013-01-09 01:34:00,
2013-01-08 20:39:00,39.2,36.2,30.41,WNW,287,3.0,9.0,89,0.00,,,0.00,HR-IXPWINDi_r2_v1.2.,2013-01-09 01:39:00,
2013-01-08 20:45:00,39.2,36.2,30.41,West,280,4.0,9.0,89,0.00,,,0.00,HR-IXPWINDi_r2_v1.2.,2013-01-09 01:45:00,
2013-01-08 20:50:00,39.1,36.1,30.41,West,260,3.0,9.0,89,0.00,,,0.00,HR-IXPWINDi_r2_v1.2.,2013-01-09 01:50:00,
2013-01-08 20:55:00,39.1,36.1,30.41,WSW,255,4.0,8.0,89,0.00,,,0.00,HR-IXPWINDi_r2_v1.2.,2013-01-09 01:55:00,
2013-01-08 21:00:00,39.1,36.1,30.41,WSW,253,6.0,8.0,89,0.00,,,0.00,HR-IXPWINDi_r2_v1.2.,2013-01-09 02:00:00,
2013-01-08 21:05:00,39.0,36.0,30.41,WSW,250,6.0,8.0,89,0.00,,,0.00,HR-IXPWINDi_r2_v1.2.,2013-01-09 02:05:00,
2013-01-08 21:11:00,39.1,36.1,30.41,WSW,250,6.0,9.0,89,0.00,,,0.00,HR-IXPWINDi_r2_v1.2.,2013-01-09 02:11:00,
2013-01-08 21:16:00,39.2,36.2,30.41,SW,233,6.0,10.0,89,0.00,,,0.00,HR-IXPWINDi_r2_v1.2.,2013-01-09 02:16:00,
2013-01-08 21:21:00,39.2,36.2,30.41,WSW,250,7.0,10.0,89,0.00,,,0.00,HR-IXPWINDi_r2_v1.2.,2013-01-09 02:21:00,
2013-01-08 21:26:00,38.9,35.9,30.41,WSW,256,6.0,10.0,89,0.00,,,0.00,HR-IXPWINDi_r2_v1.2.,2013-01-09 02:26:00,
2013-01-08 21:31:00,38.7,35.7,30.41,West,275,5.0,9.0,89,0.00,,,0.00,HR-IXPWINDi_r2_v1.2.,2013-01-09 02:31:00,
2013-01-08 21:37:00,38.6,35.6,30.41,WNW,285,3.0,8.0,89,0.00,,,0.00,HR-IXPWINDi_r2_v1.2.,2013-01-09 02:37:00,
2013-01-08 21:42:00,38.4,35.4,30.42,WSW,246,5.0,8.0,89,0.00,,,0.00,HR-IXPWINDi_r2_v1.2.,2013-01-09 02:42:00,
2013-01-08 21:47:00,38.4,35.7,30.41,WSW,243,4.0,8.0,90,0.00,,,0.00,HR-IXPWINDi_r2_v1.2.,2013-01-09 02:47:00,
2013-01-08 21:52:00,38.3,35.6,30.41,WSW,238,7.0,8.0,90,0.00,,,0.00,HR-IXPWINDi_r2_v1.2.,2013-01-09 02:52:00,
2013-01-08 21:58:00,38.4,35.7,30.40,West,277,2.0,8.0,90,0.00,,,0.00,HR-IXPWINDi_r2_v1.2.,2013-01-09 02:58:00,
2013-01-08 22:03:00,38.3,35.6,30.41,West,271,4.0,8.0,90,0.00,,,0.00,HR-IXPWINDi_r2_v1.2.,2013-01-09 03:03:00,
2013-01-08 22:08:00,38.1,35.4,30.41,WSW,243,3.0,6.0,90,0.00,,,0.00,HR-IXPWINDi_r2_v1.2.,2013-01-09 03:08:00,
2013-01-08 22:13:00,38.1,35.7,30.41,West,264,3.0,7.0,91,0.00,,,0.00,HR-IXPWINDi_r2_v1.2.,2013-01-09 03:13:00,
2013-01-08 22:18:00,38.0,35.6,30.41,WSW,249,4.0,7.0,91,0.00,,,0.00,HR-IXPWINDi_r2_v1.2.,2013-01-09 03:18:00,
2013-01-08 22:24:00,37.9,35.5,30.41,West,266,4.0,6.0,91,0.00,,,0.00,HR-IXPWINDi_r2_v1.2.,2013-01-09 03:24:00,
2013-01-08 22:29:00,37.9,35.5,30.41,West,280,1.0,6.0,91,0.00,,,0.00,HR-IXPWINDi_r2_v1.2.,2013-01-09 03:29:00,
2013-01-08 22:34:00,37.8,35.6,30.40,West,266,3.0,5.0,92,0.00,,,0.00,HR-IXPWINDi_r2_v1.2.,2013-01-09 03:34:00,
2013-01-08 22:39:00,37.9,35.7,30.41,SW,231,2.0,4.0,92,0.00,,,0.00,HR-IXPWINDi_r2_v1.2.,2013-01-09 03:39:00,
2013-01-08 22:44:00,37.7,35.5,30.41,SSW,209,1.0,4.0,92,0.00,,,0.00,HR-IXPWINDi_r2_v1.2.,2013-01-09 03:44:00,
2013-01-08 22:50:00,37.6,35.7,30.41,SW,219,2.0,4.0,93,0.00,,,0.00,HR-IXPWINDi_r2_v1.2.,2013-01-09 03:50:00,
2013-01-08 22:55:00,37.5,35.6,30.41,WSW,253,2.0,4.0,93,0.00,,,0.00,HR-IXPWINDi_r2_v1.2.,2013-01-09 03:55:00,
2013-01-08 23:00:00,37.4,35.5,30.41,SW,224,1.0,4.0,93,0.00,,,0.00,HR-IXPWINDi_r2_v1.2.,2013-01-09 04:00:00,
2013-01-08 23:05:00,37.3,35.4,30.41,SSW,210,1.0,4.0,93,0.00,,,0.00,HR-IXPWINDi_r2_v1.2.,2013-01-09 04:05:00,
2013-01-08 23:10:00,37.2,35.3,30.40,WSW,244,1.0,4.0,93,0.00,,,0.00,HR-IXPWINDi_r2_v1.2.,2013-01-09 04:10:00,
2013-01-08 23:15:00,36.9,35.0,30.40,SW,231,1.0,2.0,93,0.00,,,0.00,HR-IXPWINDi_r2_v1.2.,2013-01-09 04:15:00,
2013-01-08 23:20:00,36.8,35.2,30.40,WSW,245,1.0,1.0,94,0.00,,,0.00,HR-IXPWINDi_r2_v1.2.,2013-01-09 04:20:00,
2013-01-08 23:26:00,36.8,35.2,30.40,WSW,248,3.0,3.0,94,0.00,,,0.00,HR-IXPWINDi_r2_v1.2.,2013-01-09 04:26:00,
2013-01-08 23:31:00,36.8,35.2,30.40,West,269,0.0,3.0,94,0.00,,,0.00,HR-IXPWINDi_r2_v1.2.,2013-01-09 04:31:00,
2013-01-08 23:36:00,36.8,35.2,30.40,WSW,250,2.0,3.0,94,0.00,,,0.00,HR-IXPWINDi_r2_v1.2.,2013-01-09 04:36:00,
2013-01-08 23:41:00,36.9,35.6,30.41,West,272,4.0,4.0,95,0.00,,,0.00,HR-IXPWINDi_r2_v1.2.,2013-01-09 04:41:00,
2013-01-08 23:47:00,36.9,35.6,30.41,WSW,250,4.0,4.0,95,0.00,,,0.00,HR-IXPWINDi_r2_v1.2.,2013-01-09 04:47:00,
2013-01-08 23:52:00,37.1,35.8,30.40,West,275,4.0,6.0,95,0.00,,,0.00,HR-IXPWINDi_r2_v1.2.,2013-01-09 04:52:00,
2013-01-08 23:57:00,37.3,36.0,30.40,West,264,4.0,6.0,95,0.00,,,0.00,HR-IXPWINDi_r2_v1.2.,2013-01-09 04:57:00,